createdAt,value
2022-12-22T00:04:09.326Z,9.53
2022-12-22T00:09:49.633Z,9.52
2022-12-22T00:15:37.283Z,9.54
2022-12-22T00:21:17.790Z,9.63
2022-12-22T00:26:57.857Z,9.65
2022-12-22T00:32:38.457Z,9.70
2022-12-22T00:38:18.592Z,9.73
2022-12-22T00:43:58.802Z,9.71
2022-12-22T00:49:40.983Z,9.66
2022-12-22T00:55:22.643Z,9.67
2022-12-22T01:01:02.813Z,9.55
2022-12-22T01:06:48.851Z,9.41
2022-12-22T01:12:36.576Z,9.37
2022-12-22T01:18:16.849Z,9.27
2022-12-22T01:23:58.580Z,9.30
2022-12-22T01:29:38.944Z,9.40
2022-12-22T01:35:19.160Z,9.45
2022-12-22T01:40:59.399Z,9.39
2022-12-22T01:46:45.234Z,9.42
2022-12-22T01:52:27.073Z,9.43
2022-12-22T01:58:07.579Z,9.42
2022-12-22T02:03:48.047Z,9.49
2022-12-22T02:09:48.440Z,9.52
2022-12-22T02:15:45.512Z,9.49
2022-12-22T02:21:30.190Z,9.61
2022-12-22T02:27:14.993Z,9.62
2022-12-22T02:33:05.180Z,9.65
2022-12-22T02:38:53.874Z,9.61
2022-12-22T02:44:55.125Z,9.59
2022-12-22T02:50:44.227Z,9.62
2022-12-22T02:56:27.623Z,9.66
2022-12-22T03:02:08.449Z,9.67
2022-12-22T03:07:49.007Z,9.73
2022-12-22T03:13:29.748Z,9.74
2022-12-22T03:19:09.917Z,9.74
2022-12-22T03:24:49.920Z,9.70
2022-12-22T03:30:11.840Z,9.68
2022-12-22T03:35:33.587Z,9.58
2022-12-22T03:40:55.680Z,9.77
2022-12-22T03:46:33.001Z,9.79
2022-12-22T03:51:54.865Z,9.74
2022-12-22T03:57:16.631Z,9.92
2022-12-22T04:02:38.415Z,9.98
2022-12-22T04:08:00.262Z,9.90
2022-12-22T04:13:21.979Z,9.89
2022-12-22T04:18:43.675Z,9.91
2022-12-22T04:24:05.942Z,9.92
2022-12-22T04:29:27.653Z,10.00
2022-12-22T04:34:49.339Z,10.03
2022-12-22T04:40:11.198Z,10.00
2022-12-22T04:45:33.064Z,9.95
2022-12-22T04:50:56.899Z,9.90
2022-12-22T04:56:18.598Z,9.86
2022-12-22T05:01:40.532Z,9.87
2022-12-22T05:07:02.332Z,9.90
2022-12-22T05:12:42.848Z,9.91
2022-12-22T05:18:04.849Z,9.98
2022-12-22T05:23:26.536Z,10.00
2022-12-22T05:28:48.270Z,10.05
2022-12-22T05:34:09.969Z,10.04
2022-12-22T05:39:31.698Z,10.03
2022-12-22T05:44:53.423Z,10.05
2022-12-22T05:50:17.857Z,10.07
2022-12-22T05:55:39.585Z,10.09
2022-12-22T06:01:01.631Z,10.10
2022-12-22T06:06:23.335Z,10.12
2022-12-22T06:11:45.106Z,10.03
2022-12-22T06:17:06.837Z,10.03
2022-12-22T06:22:28.605Z,10.02
2022-12-22T06:27:50.348Z,9.99
2022-12-22T06:33:12.069Z,9.94
2022-12-22T06:38:34.279Z,9.91
2022-12-22T06:43:55.965Z,9.80
2022-12-22T06:49:17.753Z,9.94
2022-12-22T06:54:39.500Z,10.03
2022-12-22T07:00:01.305Z,10.20
2022-12-22T07:05:24.122Z,10.19
2022-12-22T07:10:58.028Z,10.24
2022-12-22T07:16:19.919Z,10.22
2022-12-22T07:21:41.705Z,10.24
2022-12-22T07:27:03.579Z,10.29
2022-12-22T07:32:25.380Z,10.24
2022-12-22T07:37:50.409Z,10.23
2022-12-22T07:43:12.152Z,10.33
2022-12-22T07:48:52.449Z,10.57
2022-12-22T07:54:15.609Z,10.53
2022-12-22T07:59:37.355Z,10.43
2022-12-22T08:04:59.242Z,10.40
2022-12-22T08:10:21.104Z,10.25
2022-12-22T08:15:42.843Z,10.07
2022-12-22T08:21:05.616Z,9.95
2022-12-22T08:26:40.493Z,10.00
2022-12-22T08:32:03.639Z,9.95
2022-12-22T08:37:27.980Z,9.92
2022-12-22T08:42:55.147Z,9.95
2022-12-22T08:48:17.000Z,10.04
2022-12-22T08:54:03.998Z,10.03
2022-12-22T08:59:20.395Z,10.06
2022-12-22T09:04:42.251Z,10.10
2022-12-22T09:10:04.320Z,10.08
2022-12-22T09:15:26.106Z,10.21
2022-12-22T09:20:47.832Z,10.28
2022-12-22T09:26:11.033Z,10.28
2022-12-22T09:31:33.987Z,10.31
2022-12-22T09:36:55.903Z,10.29
2022-12-22T09:42:20.861Z,10.18
2022-12-22T09:47:42.657Z,10.08
2022-12-22T09:53:06.377Z,10.01
2022-12-22T09:58:34.478Z,10.00
2022-12-22T10:04:05.504Z,9.97
2022-12-22T10:15:18.374Z,10.09
2022-12-22T10:20:46.864Z,10.16
2022-12-22T10:26:31.830Z,10.22
2022-12-22T10:32:00.037Z,10.33
2022-12-22T10:37:31.586Z,10.34
2022-12-22T10:42:56.004Z,10.29
2022-12-22T10:48:24.880Z,10.31
2022-12-22T10:53:52.075Z,10.32
2022-12-22T10:59:23.944Z,10.29
2022-12-22T11:04:45.805Z,10.26
2022-12-22T11:10:39.709Z,10.28
2022-12-22T11:16:24.494Z,10.38
2022-12-22T11:22:04.686Z,10.48
2022-12-22T11:28:04.029Z,10.52
2022-12-22T11:33:35.358Z,10.62
2022-12-22T11:39:07.049Z,10.68
2022-12-22T11:44:47.228Z,10.71
2022-12-22T11:51:01.979Z,10.73
2022-12-22T11:56:15.325Z,10.86
2022-12-22T12:02:02.007Z,10.95
2022-12-22T12:07:37.874Z,11.00
2022-12-22T12:13:37.491Z,11.10
2022-12-22T12:19:07.946Z,11.12
2022-12-22T12:25:11.237Z,11.18
2022-12-22T12:30:51.218Z,11.27
2022-12-22T12:36:31.878Z,11.25
2022-12-22T12:42:18.572Z,11.28
2022-12-22T12:47:40.415Z,11.23
2022-12-22T12:53:10.375Z,11.26
2022-12-22T12:58:34.855Z,11.26
2022-12-22T13:04:05.472Z,11.19
2022-12-22T13:15:29.516Z,11.25
2022-12-22T13:21:26.212Z,11.22
2022-12-22T13:26:44.116Z,11.23
2022-12-22T13:32:29.908Z,11.17
2022-12-22T13:37:54.006Z,11.21
2022-12-22T13:43:17.921Z,11.12
2022-12-22T13:48:45.275Z,11.15
2022-12-22T13:54:23.091Z,11.09
2022-12-22T13:59:48.435Z,11.13
2022-12-22T14:05:13.267Z,11.18
2022-12-22T14:10:38.692Z,11.24
2022-12-22T14:16:02.320Z,11.30
2022-12-22T14:21:24.156Z,11.31
2022-12-22T14:26:46.643Z,11.35
2022-12-22T14:32:09.148Z,11.25
2022-12-22T14:37:33.053Z,11.19
2022-12-22T14:42:56.427Z,11.07
2022-12-22T14:48:29.957Z,11.08
2022-12-22T14:53:58.209Z,11.18
2022-12-22T14:59:26.738Z,11.09
2022-12-22T15:04:48.500Z,11.06
2022-12-22T15:10:15.661Z,10.95
2022-12-22T15:15:37.952Z,10.97
2022-12-22T15:20:59.703Z,10.83
2022-12-22T15:26:21.460Z,10.79
2022-12-22T15:31:43.714Z,10.79
2022-12-22T15:37:05.472Z,10.82
2022-12-22T15:42:27.162Z,10.74
2022-12-22T15:47:53.425Z,10.75
2022-12-22T15:53:18.133Z,10.72
2022-12-22T15:58:40.375Z,10.71
2022-12-22T16:04:02.159Z,10.73
2022-12-22T16:09:27.448Z,10.59
2022-12-22T16:14:52.943Z,10.51
2022-12-22T16:20:14.743Z,10.41
2022-12-22T16:25:39.396Z,10.40
2022-12-22T16:31:01.290Z,10.43
2022-12-22T16:36:23.153Z,10.38
2022-12-22T16:41:45.446Z,10.27
2022-12-22T16:47:13.768Z,10.27
2022-12-22T16:52:38.841Z,10.41
2022-12-22T16:58:00.559Z,10.54
2022-12-22T17:03:25.584Z,10.48
2022-12-22T17:08:48.074Z,10.46
2022-12-22T17:14:28.124Z,10.32
2022-12-22T17:19:51.775Z,10.28
2022-12-22T17:25:22.721Z,10.28
2022-12-22T17:30:44.548Z,10.19
2022-12-22T17:36:06.637Z,10.21
2022-12-22T17:41:28.682Z,10.12
2022-12-22T17:46:50.519Z,10.11
2022-12-22T17:52:20.780Z,10.15
2022-12-22T17:57:42.553Z,10.12
2022-12-22T18:03:04.439Z,10.12
2022-12-22T18:08:26.396Z,10.15
2022-12-22T18:13:48.968Z,10.14
2022-12-22T18:19:10.974Z,10.13
2022-12-22T18:24:32.695Z,10.18
2022-12-22T18:29:54.440Z,10.22
2022-12-22T18:35:17.300Z,10.29
2022-12-22T18:40:39.606Z,10.26
2022-12-22T18:46:01.436Z,10.27
2022-12-22T18:51:25.243Z,10.33
2022-12-22T18:56:47.493Z,10.37
2022-12-22T19:02:17.590Z,10.36
2022-12-22T19:07:39.384Z,10.33
2022-12-22T19:13:03.709Z,10.38
2022-12-22T19:18:27.561Z,10.40
2022-12-22T19:23:49.575Z,10.36
2022-12-22T19:29:13.982Z,10.40
2022-12-22T19:34:35.812Z,10.35
2022-12-22T19:39:57.555Z,10.36
2022-12-22T19:45:36.984Z,10.30
2022-12-22T19:50:58.840Z,10.31
2022-12-22T19:56:29.842Z,10.29
2022-12-22T20:01:51.934Z,10.30
2022-12-22T20:07:22.477Z,10.25
2022-12-22T20:12:47.821Z,10.25
2022-12-22T20:18:30.140Z,10.18
2022-12-22T20:23:53.139Z,10.18
2022-12-22T20:29:14.925Z,10.18
2022-12-22T20:34:36.780Z,10.15
2022-12-22T20:39:58.649Z,10.10
2022-12-22T20:45:21.674Z,10.10
2022-12-22T20:50:43.406Z,10.04
2022-12-22T20:56:25.616Z,10.01
2022-12-22T21:01:48.865Z,10.06
2022-12-22T21:07:10.783Z,10.06
2022-12-22T21:12:32.719Z,10.05
2022-12-22T21:17:58.365Z,10.07
2022-12-22T21:23:20.493Z,10.09
2022-12-22T21:28:42.315Z,10.12
2022-12-22T21:34:04.049Z,10.18
2022-12-22T21:39:36.933Z,10.13
2022-12-22T21:44:58.640Z,10.07
2022-12-22T21:50:24.277Z,9.98
2022-12-22T21:55:46.068Z,9.98
2022-12-22T22:01:13.440Z,9.90
2022-12-22T22:06:35.317Z,9.95
2022-12-22T22:12:15.569Z,9.89
2022-12-22T22:17:37.452Z,9.86
2022-12-22T22:23:00.250Z,9.94
2022-12-22T22:28:22.006Z,9.91
2022-12-22T22:33:43.728Z,9.91
2022-12-22T22:39:05.629Z,9.97
2022-12-22T22:44:27.311Z,9.85
2022-12-22T22:49:49.135Z,9.81
2022-12-22T22:55:12.656Z,9.83
2022-12-22T23:00:34.442Z,9.82
2022-12-22T23:06:07.839Z,9.82
2022-12-22T23:11:29.541Z,9.82
2022-12-22T23:16:51.336Z,9.86
2022-12-22T23:22:14.175Z,9.86
2022-12-22T23:27:35.915Z,9.83
2022-12-22T23:32:57.673Z,9.89
2022-12-22T23:38:20.953Z,9.90
2022-12-22T23:43:42.824Z,9.95
2022-12-22T23:49:04.548Z,10.02
2022-12-22T23:54:26.254Z,10.04
2022-12-22T23:59:47.974Z,10.08
